Time;durP1;ratioP1;P1;durP2;ratioP2;P2;SDS_P1;SDS_P2;PMS_P1;PMS_P2;Temp;Humidity;BMP_temperature;BMP_pressure;BME280_temperature;BME280_humidity;BME280_pressure;Samples;Min_cycle;Max_cycle;Signal;HPM_P1;HPM_P2
2022/09/27 00:00:42;;;;;;;4.20;0.33;;;9.40;99.90;;;;;;5115892;28;20221;-81
2022/09/27 00:03:09;;;;;;;0.37;0.30;;;9.40;99.90;;;;;;5115603;28;20466;-81
2022/09/27 00:05:36;;;;;;;0.40;0.30;;;9.40;99.90;;;;;;5115829;28;20475;-81
2022/09/27 00:08:03;;;;;;;0.40;0.30;;;9.30;99.90;;;;;;5115812;28;20785;-81
2022/09/27 00:10:31;;;;;;;0.30;0.30;;;9.30;99.90;;;;;;5115802;28;20205;-81
2022/09/27 00:12:59;;;;;;;0.30;0.20;;;9.30;99.90;;;;;;5115691;28;20515;-81
2022/09/27 00:15:25;;;;;;;0.30;0.30;;;9.20;99.90;;;;;;5115698;28;20201;-81
2022/09/27 00:17:52;;;;;;;0.30;0.20;;;9.30;99.90;;;;;;5115633;28;20455;-81
2022/09/27 00:20:20;;;;;;;0.40;0.40;;;9.30;99.90;;;;;;5115628;28;20493;-81
2022/09/27 00:22:47;;;;;;;0.40;0.30;;;9.40;99.90;;;;;;5115586;28;20815;-81
2022/09/27 00:25:14;;;;;;;0.70;0.50;;;9.40;99.90;;;;;;5115462;28;20876;-81
2022/09/27 00:27:42;;;;;;;0.30;0.30;;;9.40;99.90;;;;;;5114967;28;21024;-81
2022/09/27 00:30:10;;;;;;;1.00;0.37;;;9.50;99.90;;;;;;5115086;28;20454;-81
2022/09/27 00:32:37;;;;;;;0.30;0.30;;;9.50;99.90;;;;;;5115353;28;20447;-81
2022/09/27 00:35:04;;;;;;;0.60;0.40;;;9.50;99.90;;;;;;5114918;28;20458;-81
2022/09/27 00:37:31;;;;;;;0.60;0.60;;;9.50;99.90;;;;;;5115287;28;20528;-81
2022/09/27 00:39:58;;;;;;;1.53;0.30;;;9.50;99.90;;;;;;5115081;28;20462;-81
2022/09/27 00:42:25;;;;;;;0.30;0.20;;;9.40;99.90;;;;;;5114830;28;20957;-81
2022/09/27 00:45:11;;;;;;;0.30;0.30;;;9.40;99.90;;;;;;5114963;28;20474;-81
2022/09/27 00:47:43;;;;;;;0.30;0.30;;;9.40;99.90;;;;;;5115075;28;20420;-81
2022/09/27 00:50:20;;;;;;;0.30;0.20;;;9.40;99.90;;;;;;5115050;28;20428;-81
2022/09/27 00:52:55;;;;;;;0.30;0.30;;;9.40;99.90;;;;;;5115019;28;20434;-81
2022/09/27 00:55:26;;;;;;;0.50;0.30;;;9.30;99.90;;;;;;5114896;28;20427;-81
2022/09/27 00:57:53;;;;;;;0.30;0.30;;;9.40;99.90;;;;;;5114545;28;20436;-81
2022/09/27 01:00:22;;;;;;;0.40;0.30;;;9.40;99.90;;;;;;5114773;28;20442;-81
2022/09/27 01:02:51;;;;;;;0.30;0.20;;;9.50;99.90;;;;;;5114771;28;20447;-81
2022/09/27 01:05:20;;;;;;;0.60;0.30;;;9.50;99.90;;;;;;5114619;28;20483;-81
2022/09/27 01:07:47;;;;;;;0.30;0.20;;;9.50;99.90;;;;;;5114689;28;20441;-81
2022/09/27 01:10:15;;;;;;;0.30;0.30;;;9.40;99.90;;;;;;5114474;28;20442;-82
2022/09/27 01:12:54;;;;;;;0.40;0.30;;;9.40;99.90;;;;;;5114530;28;20444;-81
2022/09/27 01:15:28;;;;;;;0.30;0.30;;;9.40;99.90;;;;;;5114585;28;20419;-81
2022/09/27 01:18:13;;;;;;;0.30;0.20;;;9.40;99.90;;;;;;5114193;28;20438;-81
2022/09/27 01:21:23;;;;;;;0.33;0.27;;;9.40;99.90;;;;;;5114492;28;20431;-81
2022/09/27 01:24:21;;;;;;;0.30;0.20;;;9.50;99.90;;;;;;5114332;28;20459;-81
2022/09/27 01:27:19;;;;;;;0.30;0.23;;;9.50;99.90;;;;;;5114318;28;20508;-81
2022/09/27 01:30:03;;;;;;;0.30;0.20;;;9.50;99.90;;;;;;5114306;28;20431;-81
2022/09/27 01:32:34;;;;;;;0.30;0.30;;;9.50;99.90;;;;;;5114260;28;20434;-81
2022/09/27 01:35:05;;;;;;;0.30;0.30;;;9.50;99.90;;;;;;5114157;28;20473;-81
2022/09/27 01:37:38;;;;;;;0.30;0.20;;;9.50;99.90;;;;;;5114135;28;20440;-81
2022/09/27 01:40:12;;;;;;;0.40;0.30;;;9.50;99.90;;;;;;5113921;28;20967;-81
2022/09/27 01:42:45;;;;;;;0.60;0.40;;;9.50;99.90;;;;;;5114118;28;20424;-81
2022/09/27 01:45:20;;;;;;;0.30;0.20;;;9.60;99.90;;;;;;5113632;28;20463;-81
2022/09/27 01:47:52;;;;;;;0.30;0.30;;;9.60;99.90;;;;;;5114031;28;20181;-81
2022/09/27 01:50:24;;;;;;;0.40;0.30;;;9.60;99.90;;;;;;5114025;28;20427;-81
2022/09/27 01:52:56;;;;;;;0.30;0.20;;;9.60;99.90;;;;;;5113939;28;20500;-81
2022/09/27 01:55:28;;;;;;;0.30;0.20;;;9.70;99.90;;;;;;5113981;28;20784;-81
2022/09/27 01:58:00;;;;;;;0.30;0.30;;;9.70;99.90;;;;;;5113932;28;20435;-81
2022/09/27 02:00:27;;;;;;;0.30;0.20;;;9.70;99.90;;;;;;5113574;28;20796;-81
2022/09/27 02:02:59;;;;;;;0.30;0.30;;;9.70;99.90;;;;;;5113757;28;20451;-81
2022/09/27 02:05:29;;;;;;;0.30;0.20;;;9.70;99.90;;;;;;5113728;28;20442;-81
2022/09/27 02:08:00;;;;;;;0.30;0.30;;;9.70;99.90;;;;;;5113822;28;20438;-80
2022/09/27 02:10:30;;;;;;;0.30;0.20;;;9.70;99.90;;;;;;5113855;28;20430;-80
2022/09/27 02:13:04;;;;;;;0.30;0.30;;;9.70;99.90;;;;;;5113404;28;20439;-79
2022/09/27 02:15:38;;;;;;;0.30;0.30;;;9.70;99.90;;;;;;5113769;28;20451;-79
2022/09/27 02:18:16;;;;;;;0.30;0.20;;;9.80;99.90;;;;;;5113739;28;20454;-79
2022/09/27 02:20:49;;;;;;;0.30;0.20;;;9.80;99.90;;;;;;5113723;28;20434;-80
2022/09/27 02:23:22;;;;;;;0.40;0.30;;;9.80;99.90;;;;;;5116968;28;20462;-80
2022/09/27 02:25:56;;;;;;;0.30;0.30;;;9.80;99.90;;;;;;5117809;28;20472;-80
2022/09/27 02:28:28;;;;;;;0.57;0.27;;;9.80;99.90;;;;;;5117433;28;20474;-80
2022/09/27 02:30:55;;;;;;;0.40;0.30;;;9.90;99.90;;;;;;5117471;28;20910;-80
2022/09/27 02:33:28;;;;;;;0.33;0.27;;;9.90;99.90;;;;;;5117277;28;20474;-80
2022/09/27 02:35:55;;;;;;;0.30;0.30;;;9.90;99.90;;;;;;5117682;28;20428;-80
2022/09/27 02:38:21;;;;;;;0.30;0.20;;;9.90;99.90;;;;;;5117596;28;20442;-80
2022/09/27 02:40:48;;;;;;;0.50;0.30;;;9.80;99.90;;;;;;5117567;28;20456;-80
2022/09/27 02:43:18;;;;;;;0.30;0.20;;;9.80;99.90;;;;;;5117127;28;20459;-80
2022/09/27 02:46:04;;;;;;;0.30;0.30;;;9.80;99.90;;;;;;5117424;28;20470;-80
2022/09/27 02:48:41;;;;;;;0.30;0.20;;;9.70;99.90;;;;;;5117140;28;20438;-80
2022/09/27 02:51:18;;;;;;;0.30;0.30;;;9.70;99.90;;;;;;5117083;28;20427;-80
2022/09/27 02:54:00;;;;;;;0.30;0.20;;;9.70;99.90;;;;;;5116977;28;20463;-80
2022/09/27 02:56:34;;;;;;;0.30;0.20;;;9.70;99.90;;;;;;5117307;28;20526;-80
2022/09/27 02:59:12;;;;;;;0.30;0.30;;;9.70;99.90;;;;;;5117258;28;20431;-80
2022/09/27 03:01:47;;;;;;;0.30;0.20;;;9.60;99.90;;;;;;5117203;28;20438;-80
2022/09/27 03:04:22;;;;;;;0.30;0.20;;;9.60;99.90;;;;;;5117081;28;20458;-80
2022/09/27 03:06:50;;;;;;;0.30;0.20;;;9.60;99.90;;;;;;5117038;28;20463;-80
2022/09/27 03:09:20;;;;;;;0.30;0.20;;;9.50;99.90;;;;;;5116962;28;20473;-80
2022/09/27 03:11:47;;;;;;;0.30;0.20;;;9.40;99.90;;;;;;5116932;28;20438;-81
2022/09/27 03:14:14;;;;;;;0.30;0.30;;;9.40;99.90;;;;;;5116867;28;20321;-80
2022/09/27 03:16:41;;;;;;;0.30;0.20;;;9.30;99.90;;;;;;5116569;28;20197;-81
2022/09/27 03:19:09;;;;;;;0.30;0.20;;;9.30;99.90;;;;;;5116821;28;20446;-81
2022/09/27 03:21:38;;;;;;;0.33;0.30;;;9.30;99.90;;;;;;5116776;28;20443;-81
2022/09/27 03:24:05;;;;;;;0.40;0.30;;;9.20;99.90;;;;;;5116650;28;20467;-80
2022/09/27 03:26:31;;;;;;;0.40;0.30;;;9.20;99.90;;;;;;5116538;28;20482;-81
2022/09/27 03:28:58;;;;;;;0.40;0.30;;;9.10;99.90;;;;;;5116150;28;20483;-80
2022/09/27 03:31:25;;;;;;;0.30;0.30;;;9.20;99.90;;;;;;5116509;28;20458;-81
2022/09/27 03:33:51;;;;;;;0.40;0.30;;;9.10;99.90;;;;;;5116480;28;20520;-80
2022/09/27 03:36:18;;;;;;;0.40;0.30;;;9.10;99.90;;;;;;5116463;28;20442;-80
2022/09/27 03:38:46;;;;;;;0.30;0.20;;;9.10;99.90;;;;;;5116457;28;20818;-80
2022/09/27 03:41:13;;;;;;;0.40;0.30;;;9.10;99.90;;;;;;5116343;28;20447;-80
2022/09/27 03:43:40;;;;;;;0.40;0.30;;;9.00;99.90;;;;;;5116687;28;20837;-81
2022/09/27 03:46:06;;;;;;;0.30;0.30;;;9.10;99.90;;;;;;5116223;28;20482;-81
2022/09/27 03:48:33;;;;;;;0.40;0.40;;;9.10;99.90;;;;;;5116203;28;20518;-81
2022/09/27 03:51:00;;;;;;;0.30;0.30;;;9.10;99.90;;;;;;5115892;28;20889;-81
2022/09/27 03:53:27;;;;;;;0.40;0.40;;;9.10;99.90;;;;;;5116079;28;20470;-80
2022/09/27 03:55:55;;;;;;;0.30;0.30;;;9.10;99.90;;;;;;5115733;28;20446;-81
2022/09/27 03:58:21;;;;;;;0.40;0.30;;;9.10;99.90;;;;;;5116040;28;20477;-81
2022/09/27 04:00:49;;;;;;;0.30;0.30;;;9.10;99.90;;;;;;5115966;28;20447;-81
2022/09/27 04:03:16;;;;;;;0.40;0.30;;;9.00;99.90;;;;;;5115917;28;20471;-80
2022/09/27 04:05:43;;;;;;;0.30;0.20;;;9.10;99.90;;;;;;5115660;28;20455;-81
2022/09/27 04:08:10;;;;;;;0.37;0.30;;;9.00;99.90;;;;;;5115817;28;20482;-81
2022/09/27 04:10:37;;;;;;;0.30;0.30;;;9.10;99.90;;;;;;5115850;28;20474;-81
2022/09/27 04:13:06;;;;;;;1.87;0.73;;;9.20;99.90;;;;;;5115727;28;20451;-81
2022/09/27 04:15:32;;;;;;;1.00;0.43;;;9.20;99.90;;;;;;5115387;28;20815;-81
2022/09/27 04:17:59;;;;;;;0.30;0.30;;;9.10;99.90;;;;;;5115662;28;20447;-81
2022/09/27 04:20:26;;;;;;;0.30;0.20;;;9.20;99.90;;;;;;5115331;28;20960;-81
2022/09/27 04:22:52;;;;;;;0.60;0.30;;;9.20;99.90;;;;;;5115159;28;20819;-80
2022/09/27 04:25:19;;;;;;;0.30;0.30;;;9.20;99.90;;;;;;5115521;28;20443;-81
2022/09/27 04:27:47;;;;;;;0.30;0.30;;;9.20;99.90;;;;;;5114842;28;20241;-81
2022/09/27 04:30:15;;;;;;;0.37;0.33;;;9.30;99.90;;;;;;5115399;28;20451;-80
2022/09/27 04:32:42;;;;;;;0.30;0.20;;;9.30;99.90;;;;;;5115391;28;20450;-80
2022/09/27 04:38:08;;;;;;;0.30;0.30;;;9.30;99.90;;;;;;5032973;28;20476;-80
2022/09/27 04:40:36;;;;;;;0.50;0.30;;;9.40;99.90;;;;;;5032369;28;20937;-81
2022/09/27 04:43:03;;;;;;;0.30;0.30;;;9.40;99.90;;;;;;5068468;28;20439;-80
2022/09/27 04:45:31;;;;;;;0.30;0.20;;;9.40;99.90;;;;;;5114603;28;20201;-80
2022/09/27 04:47:58;;;;;;;0.40;0.30;;;9.30;99.90;;;;;;5114970;28;20474;-81
2022/09/27 04:50:25;;;;;;;0.30;0.20;;;9.30;99.90;;;;;;5115016;28;20452;-80
2022/09/27 04:52:52;;;;;;;0.30;0.20;;;9.30;99.90;;;;;;5114879;28;20443;-80
2022/09/27 04:55:19;;;;;;;0.37;0.30;;;9.30;99.90;;;;;;5114946;28;20482;-80
2022/09/27 04:57:46;;;;;;;0.30;0.30;;;9.30;99.90;;;;;;5114509;28;20789;-80
2022/09/27 05:00:14;;;;;;;0.30;0.30;;;9.20;99.90;;;;;;5114750;28;20557;-80
2022/09/27 05:02:42;;;;;;;0.30;0.20;;;9.20;99.90;;;;;;5114794;28;20209;-80
2022/09/27 05:05:09;;;;;;;0.50;0.40;;;9.10;99.90;;;;;;5114637;28;20833;-80
2022/09/27 05:07:37;;;;;;;0.30;0.20;;;9.10;99.90;;;;;;5114632;28;20482;-79
2022/09/27 05:10:04;;;;;;;0.32;0.30;;;9.20;99.90;;;;;;5114590;28;20439;-80
2022/09/27 05:12:31;;;;;;;0.30;0.20;;;9.10;99.90;;;;;;5114287;28;20212;-80
2022/09/27 05:14:58;;;;;;;0.30;0.30;;;9.20;99.90;;;;;;5114499;28;20224;-80
2022/09/27 05:17:25;;;;;;;0.33;0.27;;;9.20;99.90;;;;;;5114134;28;20530;-80
2022/09/27 05:19:53;;;;;;;0.30;0.20;;;9.30;99.90;;;;;;5114441;28;20455;-80
2022/09/27 05:22:19;;;;;;;0.30;0.30;;;9.30;99.90;;;;;;5114078;28;20959;-80
2022/09/27 05:24:47;;;;;;;0.30;0.30;;;9.30;99.90;;;;;;5113977;28;20978;-80
2022/09/27 05:27:17;;;;;;;4.73;0.40;;;9.30;99.90;;;;;;5114026;28;20478;-80
2022/09/27 05:29:44;;;;;;;0.30;0.30;;;9.30;99.90;;;;;;5114334;28;20442;-80
2022/09/27 05:32:11;;;;;;;0.30;0.30;;;9.30;99.90;;;;;;5114270;28;20500;-80
2022/09/27 05:34:37;;;;;;;0.30;0.30;;;9.30;99.90;;;;;;5114163;28;20470;-80
2022/09/27 05:37:06;;;;;;;0.30;0.30;;;9.20;99.90;;;;;;5114190;28;20447;-80
2022/09/27 05:39:32;;;;;;;0.30;0.30;;;9.20;99.90;;;;;;5113881;28;20980;-80
2022/09/27 05:41:59;;;;;;;0.30;0.20;;;9.20;99.90;;;;;;5114123;28;20513;-80
2022/09/27 05:44:26;;;;;;;0.40;0.40;;;9.20;99.90;;;;;;5113736;28;20463;-80
2022/09/27 05:46:52;;;;;;;0.30;0.30;;;9.10;99.90;;;;;;5113968;28;20478;-80
2022/09/27 05:49:19;;;;;;;0.30;0.20;;;9.00;99.90;;;;;;5114021;28;20435;-80
2022/09/27 05:51:47;;;;;;;0.30;0.30;;;9.10;99.90;;;;;;5114017;28;20467;-80
2022/09/27 05:54:15;;;;;;;0.30;0.30;;;9.10;99.90;;;;;;5113921;28;20506;-80
2022/09/27 05:56:41;;;;;;;0.30;0.30;;;9.00;99.90;;;;;;5113141;28;20444;-80
2022/09/27 05:59:08;;;;;;;0.30;0.20;;;9.00;99.90;;;;;;5113633;28;20435;-80
2022/09/27 06:01:35;;;;;;;0.30;0.30;;;9.10;99.90;;;;;;5113894;28;20450;-80
2022/09/27 06:04:03;;;;;;;0.30;0.20;;;9.10;99.90;;;;;;5113747;28;20828;-80
2022/09/27 06:06:30;;;;;;;0.40;0.40;;;9.10;99.90;;;;;;5113445;28;20446;-80
2022/09/27 06:08:58;;;;;;;0.30;0.20;;;9.10;99.90;;;;;;5113815;28;20462;-80
2022/09/27 06:11:26;;;;;;;0.63;0.30;;;9.20;99.90;;;;;;5113431;28;20482;-80
2022/09/27 06:13:53;;;;;;;0.47;0.27;;;9.20;99.90;;;;;;5113376;28;20982;-80
2022/09/27 06:16:19;;;;;;;0.30;0.30;;;9.20;99.90;;;;;;5113732;28;20450;-80
2022/09/27 06:18:46;;;;;;;0.30;0.23;;;9.20;99.90;;;;;;5113708;28;20784;-81
2022/09/27 06:21:13;;;;;;;0.30;0.20;;;9.20;99.90;;;;;;5113405;28;20432;-81
2022/09/27 06:23:39;;;;;;;0.30;0.27;;;9.20;99.90;;;;;;5113671;28;20474;-80
2022/09/27 06:26:07;;;;;;;0.30;0.20;;;9.20;99.90;;;;;;5113377;28;20424;-81
2022/09/27 06:28:35;;;;;;;0.30;0.20;;;9.30;99.90;;;;;;5113200;28;20493;-81
2022/09/27 06:31:02;;;;;;;0.30;0.30;;;9.30;99.90;;;;;;5113603;28;20474;-81
2022/09/27 06:33:29;;;;;;;0.30;0.30;;;9.30;99.90;;;;;;5113193;28;20738;-81
2022/09/27 06:35:55;;;;;;;0.30;0.30;;;9.30;99.90;;;;;;5113528;28;20447;-81
2022/09/27 06:38:23;;;;;;;0.33;0.27;;;9.40;99.90;;;;;;5113463;28;20443;-81
2022/09/27 06:40:50;;;;;;;0.37;0.30;;;9.40;99.90;;;;;;5113513;28;20861;-81
2022/09/27 06:43:19;;;;;;;0.40;0.30;;;9.30;99.90;;;;;;5113432;28;20820;-81
2022/09/27 06:45:47;;;;;;;0.30;0.20;;;9.30;99.90;;;;;;5113409;28;20444;-81
2022/09/27 06:48:15;;;;;;;0.30;0.20;;;9.40;99.90;;;;;;5113362;28;20478;-81
2022/09/27 06:50:44;;;;;;;1.07;0.30;;;9.30;99.90;;;;;;5113106;28;20447;-82
2022/09/27 06:53:13;;;;;;;0.30;0.30;;;9.30;99.90;;;;;;5113069;28;20462;-82
2022/09/27 06:55:40;;;;;;;0.30;0.20;;;9.30;99.90;;;;;;5113409;28;20450;-82
2022/09/27 07:00:55;;;;;;;0.30;0.30;;;9.50;99.90;;;;;;5113454;28;20402;-82
2022/09/27 07:03:25;;;;;;;0.30;0.30;;;9.50;99.90;;;;;;5112913;28;20970;-82
2022/09/27 07:05:55;;;;;;;0.37;0.27;;;9.50;99.90;;;;;;5112998;28;20688;-81
2022/09/27 07:08:23;;;;;;;0.30;0.20;;;9.50;99.90;;;;;;5114807;28;20528;-82
2022/09/27 07:10:51;;;;;;;0.30;0.30;;;9.50;99.90;;;;;;5116695;28;21011;-81
2022/09/27 07:13:18;;;;;;;0.40;0.30;;;9.60;99.90;;;;;;5116919;28;20516;-81
2022/09/27 07:15:45;;;;;;;0.30;0.20;;;9.60;99.90;;;;;;5116569;28;21051;-81
2022/09/27 07:18:13;;;;;;;0.30;0.30;;;9.70;99.90;;;;;;5116825;28;20442;-81
2022/09/27 07:20:40;;;;;;;0.30;0.20;;;9.60;99.90;;;;;;5116552;28;20451;-81
2022/09/27 07:23:09;;;;;;;0.30;0.30;;;9.60;99.90;;;;;;5116677;28;20442;-80
2022/09/27 07:25:36;;;;;;;0.30;0.20;;;9.60;99.90;;;;;;5116721;28;20450;-81
2022/09/27 07:28:04;;;;;;;0.30;0.30;;;9.60;99.90;;;;;;5116312;28;20598;-81
2022/09/27 07:30:32;;;;;;;0.30;0.30;;;9.50;99.90;;;;;;5116304;28;20821;-82
2022/09/27 07:32:59;;;;;;;0.30;0.30;;;9.60;99.90;;;;;;5116500;28;20446;-82
2022/09/27 07:35:29;;;;;;;0.30;0.30;;;9.60;99.90;;;;;;5116481;28;20450;-81
2022/09/27 07:37:57;;;;;;;0.30;0.20;;;9.60;99.90;;;;;;5116153;28;20820;-81
2022/09/27 07:40:25;;;;;;;0.40;0.30;;;9.60;99.90;;;;;;5116408;28;20934;-81
2022/09/27 07:42:55;;;;;;;0.30;0.30;;;9.60;99.90;;;;;;5116284;28;20438;-81
2022/09/27 07:45:22;;;;;;;0.30;0.20;;;9.60;99.90;;;;;;5116395;28;20480;-81
2022/09/27 07:47:49;;;;;;;0.30;0.30;;;9.60;99.90;;;;;;5116281;28;20561;-81
2022/09/27 07:50:16;;;;;;;0.30;0.30;;;9.70;99.90;;;;;;5115937;28;20965;-81
2022/09/27 07:52:46;;;;;;;0.30;0.20;;;9.80;99.90;;;;;;5116206;28;20466;-81
2022/09/27 07:55:14;;;;;;;0.40;0.33;;;9.80;99.90;;;;;;5116154;28;20463;-81
2022/09/27 07:57:43;;;;;;;0.30;0.20;;;9.90;99.90;;;;;;5116207;28;20454;-80
2022/09/27 08:00:13;;;;;;;0.30;0.30;;;10.00;99.90;;;;;;5116093;28;20434;-80
2022/09/27 08:02:40;;;;;;;2.00;0.30;;;10.00;99.90;;;;;;5116000;28;20487;-80
2022/09/27 08:05:07;;;;;;;0.40;0.30;;;10.10;99.90;;;;;;5115866;28;20474;-81
2022/09/27 08:07:34;;;;;;;0.30;0.30;;;10.20;99.90;;;;;;5115862;28;20475;-81
2022/09/27 08:10:03;;;;;;;0.70;0.47;;;10.30;99.90;;;;;;5115892;28;20454;-81
2022/09/27 08:12:30;;;;;;;0.30;0.30;;;10.40;99.90;;;;;;5115793;28;20499;-81
2022/09/27 08:15:00;;;;;;;0.30;0.30;;;10.60;99.90;;;;;;5115686;28;20462;-80
2022/09/27 08:17:27;;;;;;;0.30;0.30;;;10.70;99.90;;;;;;5115741;28;20432;-81
2022/09/27 08:19:53;;;;;;;0.30;0.20;;;10.90;99.90;;;;;;5114802;28;20197;-80
2022/09/27 08:22:20;;;;;;;0.30;0.30;;;11.00;99.90;;;;;;5115623;28;20439;-81
2022/09/27 08:24:47;;;;;;;0.40;0.30;;;11.10;99.90;;;;;;5115497;28;20495;-81
2022/09/27 08:27:15;;;;;;;0.30;0.30;;;11.20;99.90;;;;;;5115200;28;20212;-81
2022/09/27 08:29:42;;;;;;;0.30;0.20;;;11.10;99.90;;;;;;5116083;28;20427;-81
2022/09/27 08:32:09;;;;;;;0.30;0.30;;;10.90;99.90;;;;;;5115566;28;20212;-81
2022/09/27 08:34:36;;;;;;;0.30;0.20;;;10.70;99.90;;;;;;5115380;28;20482;-81
2022/09/27 08:37:03;;;;;;;0.30;0.20;;;10.50;99.90;;;;;;5115307;28;20454;-81
2022/09/27 08:39:30;;;;;;;0.30;0.20;;;10.30;99.90;;;;;;5114948;28;20893;-81
2022/09/27 08:42:06;;;;;;;0.30;0.20;;;10.10;99.90;;;;;;5115232;28;20518;-81
2022/09/27 08:44:43;;;;;;;0.30;0.20;;;9.90;99.90;;;;;;5115120;28;20462;-80
2022/09/27 08:47:16;;;;;;;0.30;0.30;;;9.80;99.90;;;;;;5115697;28;20182;-80
2022/09/27 08:49:49;;;;;;;0.30;0.30;;;9.70;99.90;;;;;;5115037;28;20474;-81
2022/09/27 08:52:20;;;;;;;0.30;0.20;;;9.80;99.90;;;;;;5115240;28;20442;-84
2022/09/27 08:54:48;;;;;;;0.40;0.30;;;9.90;99.90;;;;;;5115079;28;20467;-81
2022/09/27 08:57:16;;;;;;;0.30;0.20;;;10.00;99.90;;;;;;5114891;28;20451;-81
2022/09/27 08:59:50;;;;;;;0.30;0.30;;;10.20;99.90;;;;;;5114905;28;20457;-81
2022/09/27 09:02:20;;;;;;;0.30;0.30;;;10.30;99.90;;;;;;5114825;28;20471;-82
2022/09/27 09:04:50;;;;;;;0.30;0.20;;;10.60;99.90;;;;;;5115032;28;20217;-81
2022/09/27 09:07:33;;;;;;;0.30;0.30;;;10.90;99.90;;;;;;5114803;28;20443;-82
2022/09/27 09:10:06;;;;;;;0.30;0.20;;;11.10;99.90;;;;;;5114874;28;20181;-82
2022/09/27 09:12:47;;;;;;;0.30;0.30;;;11.40;99.90;;;;;;5114644;28;20191;-82
2022/09/27 09:15:22;;;;;;;0.30;0.20;;;11.70;99.90;;;;;;5114525;28;20992;-82
2022/09/27 09:18:02;;;;;;;0.30;0.30;;;11.90;99.90;;;;;;5114908;28;20433;-82
2022/09/27 09:20:41;;;;;;;0.40;0.30;;;12.30;99.90;;;;;;5114340;28;20903;-82
2022/09/27 09:23:28;;;;;;;0.30;0.20;;;12.70;99.90;;;;;;5114677;28;20446;-82
2022/09/27 09:26:03;;;;;;;0.30;0.30;;;13.00;99.90;;;;;;5114323;28;20958;-82
2022/09/27 09:28:41;;;;;;;0.40;0.30;;;13.20;99.90;;;;;;5114225;28;20482;-82
2022/09/27 09:31:18;;;;;;;0.30;0.30;;;13.10;99.90;;;;;;5114303;28;20431;-82
2022/09/27 09:33:49;;;;;;;0.30;0.20;;;13.30;99.90;;;;;;5114305;28;20462;-82
2022/09/27 09:36:27;;;;;;;0.40;0.30;;;13.40;99.90;;;;;;5114741;28;20415;-82
2022/09/27 09:38:58;;;;;;;0.53;0.30;;;13.50;99.90;;;;;;5114247;28;20940;-82
2022/09/27 09:41:29;;;;;;;0.30;0.30;;;13.60;99.90;;;;;;5114099;28;20942;-82
2022/09/27 09:43:59;;;;;;;0.30;0.30;;;13.80;99.90;;;;;;5114739;28;20470;-82
2022/09/27 09:46:35;;;;;;;0.40;0.30;;;14.00;99.90;;;;;;5115057;28;20208;-82
2022/09/27 09:49:06;;;;;;;0.40;0.40;;;13.80;99.90;;;;;;5115653;28;20455;-82
2022/09/27 09:51:38;;;;;;;0.40;0.40;;;13.70;99.90;;;;;;5116131;28;20445;-82
2022/09/27 09:54:12;;;;;;;0.40;0.30;;;13.70;99.90;;;;;;5115971;28;20974;-82
2022/09/27 09:56:44;;;;;;;1.40;0.43;;;13.70;99.90;;;;;;5115210;28;20434;-81
2022/09/27 09:59:15;;;;;;;0.40;0.30;;;13.60;99.90;;;;;;5115588;28;20445;-82
2022/09/27 10:01:45;;;;;;;0.40;0.30;;;13.30;99.90;;;;;;5116650;28;20427;-82
2022/09/27 10:04:18;;;;;;;0.30;0.30;;;13.30;99.90;;;;;;5116115;28;20466;-82
2022/09/27 10:06:45;;;;;;;0.40;0.30;;;13.60;99.90;;;;;;5114576;28;20660;-82
2022/09/27 10:09:14;;;;;;;0.30;0.30;;;13.60;99.90;;;;;;5115614;28;20486;-82
2022/09/27 10:11:44;;;;;;;0.30;0.30;;;13.70;99.90;;;;;;5116065;28;20455;-82
2022/09/27 10:14:13;;;;;;;0.40;0.30;;;13.60;99.90;;;;;;5115966;28;20227;-81
2022/09/27 10:16:42;;;;;;;0.50;0.37;;;13.40;99.90;;;;;;5116037;28;20833;-82
2022/09/27 10:19:11;;;;;;;0.40;0.30;;;13.20;99.90;;;;;;5115719;28;20439;-82
2022/09/27 10:21:44;;;;;;;1.23;0.30;;;13.20;99.90;;;;;;5116399;28;20443;-82
2022/09/27 10:24:13;;;;;;;0.40;0.30;;;13.00;99.90;;;;;;5116867;28;20471;-82
2022/09/27 10:26:42;;;;;;;0.90;0.33;;;12.90;99.90;;;;;;5116291;28;20453;-83
2022/09/27 10:29:30;;;;;;;0.30;0.30;;;12.80;99.90;;;;;;5117169;28;20548;-82
2022/09/27 10:31:58;;;;;;;0.40;0.33;;;12.80;99.90;;;;;;5119715;28;20191;-82
2022/09/27 10:34:30;;;;;;;0.30;0.27;;;13.10;99.90;;;;;;5118402;28;20462;-82
2022/09/27 10:37:16;;;;;;;1.90;0.33;;;13.50;99.90;;;;;;5117478;28;20423;-81
2022/09/27 10:39:43;;;;;;;0.40;0.30;;;14.30;99.90;;;;;;5117503;28;20427;-81
2022/09/27 10:42:32;;;;;;;0.60;0.40;;;15.30;99.90;;;;;;5116871;28;20445;-81
2022/09/27 10:45:24;;;;;;;0.40;0.40;;;16.30;99.90;;;;;;5120721;28;20467;-81
2022/09/27 10:47:51;;;;;;;0.40;0.40;;;16.80;99.90;;;;;;5122537;28;20418;-82
2022/09/27 10:50:24;;;;;;;0.30;0.30;;;16.80;99.90;;;;;;5118985;28;20505;-81
2022/09/27 10:53:01;;;;;;;0.50;0.43;;;16.60;99.90;;;;;;5117321;28;20898;-81
2022/09/27 10:55:32;;;;;;;0.30;0.30;;;16.30;99.90;;;;;;5118288;28;20533;-81
2022/09/27 10:57:58;;;;;;;0.90;0.40;;;15.80;99.90;;;;;;5119144;28;20201;-81
2022/09/27 11:00:28;;;;;;;4.15;0.47;;;15.30;99.90;;;;;;5118038;28;20443;-81
2022/09/27 11:02:57;;;;;;;1.80;0.30;;;14.90;99.90;;;;;;5117488;28;20782;-81
2022/09/27 11:05:34;;;;;;;0.50;0.50;;;14.60;99.90;;;;;;5119663;28;20899;-83
2022/09/27 11:08:03;;;;;;;0.50;0.50;;;14.40;99.90;;;;;;5118509;28;20430;-82
2022/09/27 11:10:32;;;;;;;0.30;0.30;;;14.30;99.90;;;;;;5117361;28;20442;-81
2022/09/27 11:13:13;;;;;;;0.40;0.30;;;14.20;99.90;;;;;;5117705;28;20443;-81
2022/09/27 11:15:53;;;;;;;0.40;0.30;;;14.10;99.90;;;;;;5118119;28;20192;-82
2022/09/27 11:18:30;;;;;;;0.50;0.50;;;14.00;99.90;;;;;;5121730;28;20467;-82
2022/09/27 11:21:06;;;;;;;1.33;0.70;;;14.00;99.90;;;;;;5120828;28;20434;-82
2022/09/27 11:23:48;;;;;;;0.50;0.30;;;13.90;99.90;;;;;;5122165;28;20472;-83
2022/09/27 11:26:29;;;;;;;0.30;0.30;;;13.70;99.90;;;;;;5120538;28;20427;-83
2022/09/27 11:29:07;;;;;;;0.40;0.40;;;13.50;99.90;;;;;;5122034;28;20233;-84
2022/09/27 11:31:43;;;;;;;0.30;0.30;;;13.20;99.90;;;;;;5123576;28;20438;-84
2022/09/27 11:34:31;;;;;;;1.80;0.50;;;12.90;99.90;;;;;;5120146;28;20467;-84
2022/09/27 11:37:14;;;;;;;0.30;0.30;;;12.70;99.90;;;;;;5117459;28;20431;-84
2022/09/27 11:39:54;;;;;;;0.40;0.30;;;12.60;99.90;;;;;;5117632;28;20431;-83
2022/09/27 11:42:41;;;;;;;0.47;0.47;;;12.50;99.90;;;;;;5117973;28;20427;-82
2022/09/27 11:45:24;;;;;;;0.30;0.30;;;12.40;99.90;;;;;;5117043;28;20474;-75
2022/09/27 11:48:03;;;;;;;0.30;0.30;;;12.30;99.90;;;;;;5116471;28;20182;-79
2022/09/27 11:51:01;;;;;;;1.57;0.37;;;12.30;99.90;;;;;;5116495;28;20827;-82
2022/09/27 11:53:58;;;;;;;0.30;0.30;;;12.30;99.90;;;;;;5116399;28;20516;-79
2022/09/27 11:56:39;;;;;;;0.30;0.30;;;12.20;99.90;;;;;;5115610;28;20435;-82
2022/09/27 11:59:22;;;;;;;0.47;0.40;;;12.00;99.90;;;;;;5117106;28;20435;-76
2022/09/27 12:01:54;;;;;;;0.30;0.30;;;11.90;99.90;;;;;;5116659;28;20423;-82
2022/09/27 12:04:42;;;;;;;0.40;0.30;;;11.70;99.90;;;;;;5115940;28;20466;-81
2022/09/27 12:07:16;;;;;;;0.40;0.40;;;11.50;99.90;;;;;;5115925;28;20911;-78
2022/09/27 12:09:50;;;;;;;0.30;0.30;;;11.40;99.90;;;;;;5115955;28;20511;-75
2022/09/27 12:12:20;;;;;;;0.30;0.30;;;11.40;99.90;;;;;;5115750;28;20438;-78
2022/09/27 12:14:50;;;;;;;0.40;0.40;;;11.30;99.90;;;;;;5115936;28;20232;-80
2022/09/27 12:17:20;;;;;;;0.40;0.40;;;11.20;99.90;;;;;;5115986;28;20428;-78
2022/09/27 12:19:52;;;;;;;0.40;0.33;;;11.20;99.90;;;;;;5115951;28;20488;-75
2022/09/27 12:22:21;;;;;;;0.40;0.37;;;11.10;99.90;;;;;;5115714;28;20423;-75
2022/09/27 12:24:50;;;;;;;0.37;0.30;;;11.10;99.90;;;;;;5115198;28;20467;-75
2022/09/27 12:27:29;;;;;;;0.40;0.30;;;11.10;99.90;;;;;;5115700;28;20451;-75
2022/09/27 12:29:59;;;;;;;0.30;0.30;;;11.00;99.90;;;;;;5115955;28;20489;-79
2022/09/27 12:32:31;;;;;;;0.30;0.30;;;10.90;99.90;;;;;;5115612;28;20442;-75
2022/09/27 12:35:04;;;;;;;0.30;0.30;;;11.00;99.90;;;;;;5115566;28;20467;-78
2022/09/27 12:37:35;;;;;;;0.30;0.30;;;10.90;99.90;;;;;;5115275;28;20427;-79
2022/09/27 12:40:13;;;;;;;0.30;0.30;;;10.80;99.90;;;;;;5115365;28;20428;-79
2022/09/27 12:42:44;;;;;;;0.37;0.30;;;10.80;99.90;;;;;;5115449;28;20427;-81
2022/09/27 12:45:12;;;;;;;0.40;0.30;;;10.70;99.90;;;;;;5115417;28;20474;-81
2022/09/27 12:47:53;;;;;;;0.40;0.40;;;10.70;99.90;;;;;;5115291;28;20442;-78
2022/09/27 12:50:29;;;;;;;0.30;0.28;;;10.60;99.90;;;;;;5115230;28;20471;-82
2022/09/27 12:53:03;;;;;;;0.30;0.30;;;10.50;99.90;;;;;;5114868;28;20190;-81
2022/09/27 12:56:06;;;;;;;0.30;0.30;;;10.60;99.90;;;;;;5115068;28;20428;-77
2022/09/27 12:59:04;;;;;;;0.53;0.30;;;10.70;99.90;;;;;;5106775;28;20497;-75
2022/09/27 13:01:51;;;;;;;0.30;0.30;;;10.70;99.90;;;;;;5082207;28;20442;-77
2022/09/27 13:05:00;;;;;;;0.30;0.30;;;10.70;99.90;;;;;;5114995;28;20470;-75
2022/09/27 13:07:40;;;;;;;0.30;0.30;;;10.50;99.90;;;;;;5089652;28;20992;-74
2022/09/27 13:10:25;;;;;;;0.40;0.30;;;10.50;99.90;;;;;;5114922;28;20455;-82
2022/09/27 13:12:55;;;;;;;0.30;0.30;;;10.40;99.90;;;;;;5114871;28;20431;-78
2022/09/27 13:15:28;;;;;;;0.30;0.27;;;10.50;99.90;;;;;;5114702;28;20458;-77
2022/09/27 13:17:58;;;;;;;0.30;0.30;;;10.40;99.90;;;;;;5114271;28;20428;-77
2022/09/27 13:20:43;;;;;;;0.43;0.43;;;10.40;99.90;;;;;;5114591;28;20439;-77